Terminal Aerodrome Forecast
Issued by NWS

Home | Current Version | Previous Version | Text Only | Print | Product List | Glossary On
Versions: 1 2 3 4 5 6 7 8 9 10 11 12 13 14 15
000
FTAK31 PANC 191137
TAFACD
TAF
PACD 191137Z 1912/2012 15029G38KT P6SM VCSH BKN040
     FM191800 15025G35KT P6SM SCT015 OVC025
     FM192000 17020G30KT 4SM -RA BR VCSH SCT007 OVC015
     FM200300 23011KT P6SM OVC025
     FM201000 32006KT P6SM BKN035=

USA.gov is the U.S. government's official web portal to all federal, state and local government web resources and services.